createdAt,value
2022-11-19T00:00:10.585Z,47.43
2022-11-19T00:02:38.994Z,47.05
2022-11-19T00:05:07.873Z,47.45
2022-11-19T00:07:37.947Z,47.29
2022-11-19T00:10:07.230Z,47.46
2022-11-19T00:12:52.292Z,46.97
2022-11-19T00:15:20.844Z,47.13
2022-11-19T00:17:49.462Z,47.08
2022-11-19T00:20:18.583Z,47.29
2022-11-19T00:22:52.677Z,46.98
2022-11-19T00:25:21.460Z,47.42
2022-11-19T00:27:49.927Z,47.29
2022-11-19T00:30:40.630Z,47.39
2022-11-19T00:33:07.686Z,47.20
2022-11-19T00:35:36.195Z,47.29
2022-11-19T00:38:06.039Z,47.25
2022-11-19T00:40:34.658Z,46.97
2022-11-19T00:43:20.855Z,47.24
2022-11-19T00:45:50.241Z,47.29
2022-11-19T00:48:18.705Z,47.09
2022-11-19T00:50:47.151Z,47.01
2022-11-19T00:53:16.946Z,47.13
2022-11-19T00:55:45.741Z,47.33
2022-11-19T00:58:14.281Z,47.26
2022-11-19T01:00:42.695Z,47.26
2022-11-19T01:03:11.175Z,46.91
2022-11-19T01:05:39.664Z,47.03
2022-11-19T01:08:08.975Z,47.26
2022-11-19T01:10:38.841Z,47.19
2022-11-19T01:13:24.744Z,47.00
2022-11-19T01:15:53.243Z,46.92
2022-11-19T01:18:22.115Z,47.28
2022-11-19T01:20:50.611Z,47.18
2022-11-19T01:23:19.340Z,46.92
2022-11-19T01:25:49.494Z,47.18
2022-11-19T01:28:18.161Z,46.92
2022-11-19T01:30:46.931Z,46.99
2022-11-19T01:33:15.378Z,47.19
2022-11-19T01:35:43.874Z,46.97
2022-11-19T01:38:12.307Z,46.87
2022-11-19T01:40:44.822Z,46.78
2022-11-19T01:43:14.982Z,47.04
2022-11-19T01:45:45.125Z,47.04
2022-11-19T01:48:19.153Z,47.10
2022-11-19T01:50:49.802Z,46.80
2022-11-19T01:53:20.198Z,46.92
2022-11-19T01:55:50.429Z,46.84
2022-11-19T01:58:24.087Z,46.72
2022-11-19T02:00:52.687Z,47.07
2022-11-19T02:03:24.402Z,46.86
2022-11-19T02:05:53.004Z,46.81
2022-11-19T02:08:37.592Z,46.73
2022-11-19T02:11:31.603Z,46.59
2022-11-19T02:14:13.249Z,47.17
2022-11-19T02:16:52.611Z,46.71
2022-11-19T02:19:43.935Z,46.86
2022-11-19T02:22:26.202Z,47.09
2022-11-19T02:24:56.078Z,47.07
2022-11-19T02:27:49.145Z,46.95
2022-11-19T02:30:20.152Z,46.73
2022-11-19T02:32:59.091Z,46.67
2022-11-19T02:35:44.537Z,46.85
2022-11-19T02:38:23.155Z,46.87
2022-11-19T02:40:57.674Z,47.06
2022-11-19T02:43:33.915Z,47.10
2022-11-19T02:46:09.239Z,46.90
2022-11-19T02:48:41.139Z,47.12
2022-11-19T02:51:10.456Z,47.10
2022-11-19T02:53:38.895Z,46.86
2022-11-19T02:56:17.029Z,47.10
2022-11-19T02:59:16.032Z,46.77
2022-11-19T03:02:05.552Z,46.79
2022-11-19T03:04:34.193Z,47.09
2022-11-19T03:07:09.207Z,46.93
2022-11-19T03:09:42.270Z,47.11
2022-11-19T03:12:19.022Z,47.03
2022-11-19T03:15:12.582Z,46.95
2022-11-19T03:18:01.278Z,46.87
2022-11-19T03:20:34.568Z,46.64
2022-11-19T03:23:09.226Z,47.11
2022-11-19T03:25:41.680Z,46.80
2022-11-19T03:28:16.023Z,46.76
2022-11-19T03:30:48.184Z,46.75
2022-11-19T03:33:24.665Z,47.16
2022-11-19T03:35:56.597Z,47.02
2022-11-19T03:38:30.398Z,46.90
2022-11-19T03:40:59.918Z,47.03
2022-11-19T03:43:32.954Z,46.87
2022-11-19T03:46:06.173Z,46.79
2022-11-19T03:48:38.471Z,46.82
2022-11-19T03:51:12.388Z,46.78
2022-11-19T03:53:40.703Z,46.89
2022-11-19T03:56:12.938Z,47.01
2022-11-19T03:58:42.996Z,46.89
2022-11-19T04:01:12.455Z,47.14
2022-11-19T04:04:02.174Z,46.70
2022-11-19T04:06:30.655Z,47.04
2022-11-19T04:08:59.132Z,46.72
2022-11-19T04:13:54.920Z,47.02
2022-11-19T04:16:23.353Z,46.68
2022-11-19T04:18:53.158Z,46.80
2022-11-19T04:21:21.688Z,46.94
2022-11-19T04:23:50.511Z,46.58
2022-11-19T04:26:18.931Z,46.97
2022-11-19T04:28:47.781Z,46.90
2022-11-19T04:31:18.087Z,46.87
2022-11-19T04:33:46.691Z,47.04
2022-11-19T04:36:16.498Z,46.76
2022-11-19T04:38:44.979Z,46.91
2022-11-19T04:41:13.451Z,46.68
2022-11-19T04:43:41.901Z,46.97
2022-11-19T04:46:10.418Z,47.00
2022-11-19T04:48:38.873Z,46.79
2022-11-19T04:51:07.340Z,46.71
2022-11-19T04:53:37.291Z,46.96
2022-11-19T04:56:06.072Z,46.86
2022-11-19T04:58:34.812Z,46.79
2022-11-19T05:01:03.685Z,46.97
2022-11-19T05:03:32.356Z,46.97
2022-11-19T05:06:00.845Z,46.69
2022-11-19T05:08:29.385Z,46.91
2022-11-19T05:10:59.216Z,46.75
2022-11-19T05:13:27.669Z,46.87
2022-11-19T05:15:56.106Z,46.80
2022-11-19T05:18:24.620Z,46.81
2022-11-19T05:20:53.089Z,46.59
2022-11-19T05:23:21.640Z,46.72
2022-11-19T05:25:50.126Z,46.62
2022-11-19T05:28:24.860Z,46.95
2022-11-19T05:31:01.479Z,46.92
2022-11-19T05:33:33.789Z,46.91
2022-11-19T05:36:03.036Z,46.86
2022-11-19T05:38:31.505Z,46.62
2022-11-19T05:40:59.965Z,46.67
2022-11-19T05:43:29.767Z,46.83
2022-11-19T05:46:00.709Z,46.64
2022-11-19T05:48:29.315Z,46.94
2022-11-19T05:50:57.915Z,46.71
2022-11-19T05:53:26.346Z,46.99
2022-11-19T05:55:54.773Z,46.87
2022-11-19T05:58:23.271Z,46.80
2022-11-19T06:00:56.591Z,46.81
2022-11-19T06:03:24.999Z,46.66
2022-11-19T06:05:53.929Z,46.58
2022-11-19T06:08:22.387Z,46.53
2022-11-19T06:10:50.828Z,46.72
2022-11-19T06:13:19.247Z,46.65
2022-11-19T06:15:47.707Z,46.70
2022-11-19T06:18:17.589Z,46.66
2022-11-19T06:20:46.025Z,46.76
2022-11-19T06:23:14.480Z,46.79
2022-11-19T06:25:42.933Z,46.64
2022-11-19T06:28:11.298Z,46.77
2022-11-19T06:30:39.756Z,46.54
2022-11-19T06:33:08.143Z,46.54
2022-11-19T06:35:38.442Z,46.69
2022-11-19T06:38:07.031Z,46.68
2022-11-19T06:40:35.555Z,46.42
2022-11-19T06:43:03.994Z,46.66
2022-11-19T06:45:32.480Z,46.44
2022-11-19T06:48:00.896Z,46.45
2022-11-19T06:50:29.318Z,46.77
2022-11-19T06:52:59.118Z,46.75
2022-11-19T06:55:27.688Z,46.58
2022-11-19T06:57:57.590Z,46.44
2022-11-19T07:00:26.070Z,46.73
2022-11-19T07:02:54.584Z,46.63
2022-11-19T07:05:23.008Z,46.77
2022-11-19T07:07:51.682Z,46.65
2022-11-19T07:10:21.568Z,46.77
2022-11-19T07:12:49.997Z,46.60
2022-11-19T07:15:18.418Z,46.86
2022-11-19T07:17:46.788Z,46.61
2022-11-19T07:20:15.419Z,46.47
2022-11-19T07:22:43.956Z,46.52
2022-11-19T07:25:13.575Z,46.56
2022-11-19T07:27:46.530Z,46.54
2022-11-19T07:30:15.812Z,46.48
2022-11-19T07:32:44.747Z,46.80
2022-11-19T07:35:13.459Z,46.40
2022-11-19T07:37:41.890Z,46.81
2022-11-19T07:40:11.933Z,46.44
2022-11-19T07:42:52.912Z,46.67
2022-11-19T07:45:23.484Z,46.74
2022-11-19T07:47:51.954Z,46.31
2022-11-19T07:50:20.467Z,46.45
2022-11-19T07:52:48.875Z,46.59
2022-11-19T07:55:17.592Z,46.34
2022-11-19T07:57:46.014Z,46.59
2022-11-19T08:00:15.600Z,46.27
2022-11-19T08:02:45.459Z,46.65
2022-11-19T08:05:14.001Z,46.72
2022-11-19T08:07:42.833Z,46.83
2022-11-19T08:10:12.276Z,46.72
2022-11-19T08:12:40.947Z,46.52
2022-11-19T08:15:10.490Z,46.66
2022-11-19T08:17:56.471Z,46.48
2022-11-19T08:20:26.279Z,46.27
2022-11-19T08:22:54.785Z,46.25
2022-11-19T08:25:23.197Z,46.54
2022-11-19T08:27:51.642Z,46.46
2022-11-19T08:30:20.156Z,46.57
2022-11-19T08:32:48.983Z,46.91
2022-11-19T08:35:17.660Z,47.02
2022-11-19T08:37:47.876Z,47.14
2022-11-19T08:40:17.048Z,46.83
2022-11-19T08:42:59.841Z,46.68
2022-11-19T08:45:30.404Z,46.82
2022-11-19T08:48:00.580Z,47.09
2022-11-19T08:50:29.868Z,46.88
2022-11-19T08:53:01.993Z,46.83
2022-11-19T08:55:32.169Z,46.85
2022-11-19T08:58:02.119Z,47.01
2022-11-19T09:00:31.836Z,47.07
2022-11-19T09:03:00.511Z,46.92
2022-11-19T09:05:30.403Z,46.76
2022-11-19T09:08:00.415Z,47.27
2022-11-19T09:10:29.222Z,48.38
2022-11-19T09:12:57.676Z,49.99
2022-11-19T09:15:26.109Z,50.90
2022-11-19T09:17:54.615Z,50.50
2022-11-19T09:20:23.410Z,50.20
2022-11-19T09:22:52.042Z,50.00
2022-11-19T09:25:21.833Z,49.89
2022-11-19T09:27:50.435Z,51.09
2022-11-19T09:30:19.065Z,50.91
2022-11-19T09:32:47.477Z,50.69
2022-11-19T09:35:16.097Z,50.49
2022-11-19T09:37:44.749Z,51.64
2022-11-19T09:40:16.797Z,51.24
2022-11-19T09:43:01.741Z,51.23
2022-11-19T09:45:41.179Z,50.62
2022-11-19T09:48:22.032Z,50.31
2022-11-19T09:50:54.388Z,49.52
2022-11-19T09:53:24.298Z,49.56
2022-11-19T09:55:54.811Z,49.77
2022-11-19T09:58:28.129Z,49.69
2022-11-19T10:00:56.747Z,50.01
2022-11-19T10:03:32.795Z,50.68
2022-11-19T10:06:24.596Z,50.51
2022-11-19T10:09:10.777Z,50.56
2022-11-19T10:11:50.996Z,50.71
2022-11-19T10:14:38.849Z,50.78
2022-11-19T10:17:20.210Z,51.41
2022-11-19T10:20:10.686Z,51.03
2022-11-19T10:22:46.159Z,51.11
2022-11-19T10:25:18.584Z,51.43
2022-11-19T10:27:51.122Z,51.16
2022-11-19T10:30:23.906Z,51.16
2022-11-19T10:32:58.282Z,51.23
2022-11-19T10:35:33.161Z,51.24
2022-11-19T10:38:04.901Z,51.59
2022-11-19T10:40:40.562Z,51.28
2022-11-19T10:43:23.145Z,51.68
2022-11-19T10:45:54.462Z,51.63
2022-11-19T10:48:25.135Z,51.55
2022-11-19T10:50:55.871Z,51.80
2022-11-19T10:53:28.477Z,51.72
2022-11-19T10:56:00.744Z,51.78
2022-11-19T10:58:33.296Z,51.67
2022-11-19T11:01:04.745Z,52.14
2022-11-19T11:03:39.119Z,52.02
2022-11-19T11:06:10.086Z,52.16
2022-11-19T11:08:49.338Z,52.01
2022-11-19T11:11:26.004Z,52.02
2022-11-19T11:14:12.310Z,52.10
2022-11-19T11:16:45.683Z,52.04
2022-11-19T11:19:17.794Z,52.12
2022-11-19T11:21:47.178Z,51.87
2022-11-19T11:24:15.776Z,51.64
2022-11-19T11:26:44.267Z,51.21
2022-11-19T11:29:27.263Z,51.46
2022-11-19T11:31:57.120Z,51.79
2022-11-19T11:34:34.484Z,51.60
2022-11-19T11:37:05.193Z,52.04
2022-11-19T11:39:36.038Z,51.82
2022-11-19T11:42:16.083Z,52.18
2022-11-19T11:44:52.163Z,52.01
2022-11-19T11:47:25.795Z,52.25
2022-11-19T11:50:05.206Z,51.83
2022-11-19T11:52:40.204Z,52.25
2022-11-19T11:55:31.796Z,52.26
2022-11-19T11:58:02.156Z,52.11
2022-11-19T12:00:34.421Z,52.28
2022-11-19T12:03:06.450Z,52.25
2022-11-19T12:05:45.421Z,52.25
2022-11-19T12:08:27.064Z,52.50
2022-11-19T12:11:03.955Z,52.28
2022-11-19T12:13:55.180Z,52.11
2022-11-19T12:16:43.772Z,52.04
2022-11-19T12:19:31.917Z,51.93
2022-11-19T12:22:07.859Z,52.16
2022-11-19T12:24:54.464Z,52.11
2022-11-19T12:27:33.306Z,52.40
2022-11-19T12:30:06.095Z,52.33
2022-11-19T12:32:58.866Z,52.16
2022-11-19T12:35:42.999Z,52.35
2022-11-19T12:38:26.211Z,52.03
2022-11-19T12:41:06.510Z,52.27
2022-11-19T12:43:54.141Z,52.59
2022-11-19T12:46:35.086Z,52.19
2022-11-19T12:49:42.768Z,52.44
2022-11-19T12:52:39.977Z,52.46
2022-11-19T12:55:18.239Z,52.55
2022-11-19T12:57:56.552Z,52.30
2022-11-19T13:00:26.447Z,52.83
2022-11-19T13:03:04.947Z,52.93
2022-11-19T13:05:43.640Z,53.58
2022-11-19T13:08:19.439Z,53.44
2022-11-19T13:10:51.908Z,52.28
2022-11-19T13:13:26.747Z,50.79
2022-11-19T13:16:00.973Z,50.06
2022-11-19T13:18:33.630Z,50.00
2022-11-19T13:21:05.094Z,49.52
2022-11-19T13:23:39.309Z,49.68
2022-11-19T13:26:12.785Z,48.67
2022-11-19T13:28:46.708Z,48.77
2022-11-19T13:31:29.304Z,48.42
2022-11-19T13:34:02.074Z,48.15
2022-11-19T13:36:36.563Z,47.82
2022-11-19T13:39:15.453Z,47.86
2022-11-19T13:42:03.054Z,47.46
2022-11-19T13:44:41.341Z,47.03
2022-11-19T13:47:14.636Z,47.37
2022-11-19T13:49:46.418Z,47.01
2022-11-19T13:52:25.811Z,46.61
2022-11-19T13:54:58.205Z,46.82
2022-11-19T13:57:31.414Z,46.69
2022-11-19T14:00:03.388Z,46.38
2022-11-19T14:03:00.852Z,46.88
2022-11-19T14:05:52.438Z,46.35
2022-11-19T14:08:54.410Z,46.00
2022-11-19T14:11:41.618Z,45.43
2022-11-19T14:14:48.155Z,45.37
2022-11-19T14:17:46.662Z,45.20
2022-11-19T14:20:51.313Z,45.61
2022-11-19T14:24:01.321Z,45.01
2022-11-19T14:27:03.068Z,45.42
2022-11-19T14:30:02.551Z,44.85
2022-11-19T14:32:46.311Z,44.80
2022-11-19T14:35:40.291Z,44.74
2022-11-19T14:38:37.395Z,44.60
2022-11-19T14:41:33.642Z,44.79
2022-11-19T14:44:10.166Z,44.56
2022-11-19T14:46:40.859Z,44.46
2022-11-19T14:49:29.988Z,44.44
2022-11-19T14:51:59.094Z,44.62
2022-11-19T14:54:32.507Z,44.86
2022-11-19T14:57:05.247Z,44.44
2022-11-19T14:59:37.852Z,44.96
2022-11-19T15:02:23.232Z,44.85
2022-11-19T15:04:57.565Z,45.29
2022-11-19T15:07:44.713Z,45.45
2022-11-19T15:10:33.014Z,45.31
2022-11-19T15:13:21.455Z,45.50
2022-11-19T15:15:55.841Z,45.96
2022-11-19T15:19:06.911Z,46.00
2022-11-19T15:22:00.342Z,46.01
2022-11-19T15:24:40.281Z,46.24
2022-11-19T15:27:18.226Z,46.44
2022-11-19T15:30:07.039Z,46.36
2022-11-19T15:33:03.676Z,46.56
2022-11-19T15:35:38.403Z,46.88
2022-11-19T15:38:20.152Z,46.80
2022-11-19T15:40:52.146Z,46.99
2022-11-19T15:43:28.090Z,46.95
2022-11-19T15:46:01.069Z,46.82
2022-11-19T15:48:46.619Z,47.08
2022-11-19T15:51:17.332Z,47.12
2022-11-19T15:53:59.518Z,47.19
2022-11-19T15:56:32.561Z,46.93
2022-11-19T15:59:03.797Z,47.47
2022-11-19T16:01:34.299Z,47.71
2022-11-19T16:04:10.072Z,47.23
2022-11-19T16:06:40.083Z,46.89
2022-11-19T16:09:17.463Z,46.97
2022-11-19T16:12:05.471Z,46.96
2022-11-19T16:14:47.872Z,47.37
2022-11-19T16:17:41.697Z,47.09
2022-11-19T16:20:22.168Z,47.09
2022-11-19T16:22:58.170Z,47.46
2022-11-19T16:25:32.397Z,47.47
2022-11-19T16:28:04.135Z,47.20
2022-11-19T16:30:42.642Z,47.41
2022-11-19T16:33:17.613Z,47.15
2022-11-19T16:35:52.636Z,47.45
2022-11-19T16:38:28.354Z,47.37
2022-11-19T16:41:14.996Z,47.42
2022-11-19T16:43:48.360Z,47.37
2022-11-19T16:46:21.175Z,47.50
2022-11-19T16:48:59.122Z,47.51
2022-11-19T16:51:51.904Z,47.52
2022-11-19T16:54:45.932Z,47.42
2022-11-19T16:57:16.451Z,47.58
2022-11-19T16:59:49.295Z,47.10
2022-11-19T17:02:20.459Z,47.46
2022-11-19T17:04:50.641Z,47.25
2022-11-19T17:07:25.053Z,47.14
2022-11-19T17:10:10.320Z,47.08
2022-11-19T17:12:49.911Z,47.26
2022-11-19T17:15:38.524Z,47.61
2022-11-19T17:18:18.588Z,47.21
2022-11-19T17:20:52.508Z,47.58
2022-11-19T17:23:24.132Z,47.62
2022-11-19T17:25:55.943Z,47.59
2022-11-19T17:28:30.820Z,47.40
2022-11-19T17:31:00.770Z,47.77
2022-11-19T17:33:32.743Z,47.46
2022-11-19T17:36:04.420Z,47.74
2022-11-19T17:38:34.976Z,47.55
2022-11-19T17:41:07.343Z,47.41
2022-11-19T17:43:55.225Z,47.76
2022-11-19T17:46:25.071Z,47.81
2022-11-19T17:48:54.899Z,48.03
2022-11-19T17:51:24.775Z,48.29
2022-11-19T17:53:57.793Z,48.33
2022-11-19T17:56:28.171Z,48.76
2022-11-19T17:58:59.480Z,48.66
2022-11-19T18:01:28.269Z,48.87
2022-11-19T18:03:56.843Z,48.55
2022-11-19T18:06:25.324Z,48.67
2022-11-19T18:08:55.261Z,48.87
2022-11-19T18:11:25.900Z,48.70
2022-11-19T18:13:57.275Z,48.69
2022-11-19T18:16:27.741Z,49.00
2022-11-19T18:18:56.366Z,49.02
2022-11-19T18:21:27.110Z,49.16
2022-11-19T18:23:57.051Z,48.93
2022-11-19T18:26:25.644Z,49.26
2022-11-19T18:28:54.177Z,49.35
2022-11-19T18:31:24.293Z,49.06
2022-11-19T18:33:52.893Z,49.53
2022-11-19T18:36:22.249Z,49.30
2022-11-19T18:38:52.031Z,49.29
2022-11-19T18:41:22.223Z,49.39
2022-11-19T18:44:08.437Z,49.14
2022-11-19T18:46:37.173Z,49.09
2022-11-19T18:49:05.929Z,49.27
2022-11-19T18:51:34.453Z,49.63
2022-11-19T18:54:02.921Z,49.91
2022-11-19T18:56:32.776Z,49.34
2022-11-19T18:59:04.776Z,49.49
2022-11-19T19:01:34.015Z,49.34
2022-11-19T19:04:02.698Z,49.30
2022-11-19T19:06:31.967Z,49.64
2022-11-19T19:09:00.420Z,49.83
2022-11-19T19:11:46.395Z,49.73
2022-11-19T19:14:16.305Z,49.60
2022-11-19T19:16:44.758Z,49.63
2022-11-19T19:19:15.973Z,49.94
2022-11-19T19:21:44.453Z,49.82
2022-11-19T19:24:13.157Z,49.89
2022-11-19T19:26:41.967Z,49.74
2022-11-19T19:29:10.530Z,49.86
2022-11-19T19:31:40.446Z,49.77
2022-11-19T19:34:08.953Z,49.62
2022-11-19T19:36:37.848Z,50.25
2022-11-19T19:39:06.532Z,50.27
2022-11-19T19:41:35.080Z,50.19
2022-11-19T19:44:04.886Z,49.93
2022-11-19T19:46:34.031Z,50.02
2022-11-19T19:49:04.061Z,49.95
2022-11-19T19:51:32.664Z,50.18
2022-11-19T19:54:01.637Z,50.23
2022-11-19T19:56:31.785Z,49.88
2022-11-19T19:59:01.409Z,49.69
2022-11-19T20:01:31.886Z,50.04
2022-11-19T20:04:02.593Z,49.42
2022-11-19T20:06:34.096Z,49.56
2022-11-19T20:09:08.109Z,49.43
2022-11-19T20:11:38.586Z,49.16
2022-11-19T20:14:08.112Z,48.95
2022-11-19T20:16:40.213Z,49.09
2022-11-19T20:19:14.209Z,49.19
2022-11-19T20:21:44.114Z,49.35
2022-11-19T20:24:13.714Z,49.36
2022-11-19T20:26:43.416Z,49.55
2022-11-19T20:29:14.034Z,49.47
2022-11-19T20:31:46.943Z,49.06
2022-11-19T20:34:16.062Z,49.24
2022-11-19T20:36:45.959Z,49.49
2022-11-19T20:39:14.412Z,49.37
2022-11-19T20:42:00.560Z,49.54
2022-11-19T20:44:29.075Z,49.21
2022-11-19T20:46:58.979Z,49.61
2022-11-19T20:49:28.816Z,49.40
2022-11-19T20:51:59.228Z,49.18
2022-11-19T20:54:28.253Z,49.49
2022-11-19T20:56:58.082Z,49.66
2022-11-19T20:59:27.846Z,49.59
2022-11-19T21:01:57.811Z,49.66
2022-11-19T21:04:28.393Z,49.65
2022-11-19T21:06:58.273Z,49.42
2022-11-19T21:09:26.921Z,49.37
2022-11-19T21:11:55.538Z,49.78
2022-11-19T21:14:24.235Z,49.69
2022-11-19T21:16:52.693Z,49.32
2022-11-19T21:19:21.563Z,49.37
2022-11-19T21:21:50.165Z,49.36
2022-11-19T21:24:20.015Z,49.54
2022-11-19T21:26:48.729Z,49.39
2022-11-19T21:29:17.264Z,49.57
2022-11-19T21:31:48.544Z,49.66
2022-11-19T21:34:20.356Z,49.54
2022-11-19T21:36:49.666Z,49.68
2022-11-19T21:39:20.728Z,49.54
2022-11-19T21:41:49.846Z,50.04
2022-11-19T21:44:21.400Z,49.97
2022-11-19T21:46:50.745Z,49.96
2022-11-19T21:49:19.599Z,49.98
2022-11-19T21:51:49.062Z,49.88
2022-11-19T21:54:17.572Z,49.94
2022-11-19T21:56:48.159Z,50.08
2022-11-19T21:59:16.727Z,49.92
2022-11-19T22:01:47.302Z,49.96
2022-11-19T22:04:18.988Z,49.80
2022-11-19T22:06:47.479Z,49.80
2022-11-19T22:09:16.140Z,49.71
2022-11-19T22:11:44.650Z,49.83
2022-11-19T22:14:14.523Z,49.92
2022-11-19T22:16:42.927Z,49.72
2022-11-19T22:19:12.045Z,49.93
2022-11-19T22:21:40.810Z,49.79
2022-11-19T22:24:09.458Z,50.02
2022-11-19T22:26:38.012Z,50.08
2022-11-19T22:29:06.473Z,50.11
2022-11-19T22:31:36.371Z,49.82
2022-11-19T22:34:04.844Z,49.88
2022-11-19T22:36:34.118Z,49.80
2022-11-19T22:39:03.009Z,50.10
2022-11-19T22:41:31.537Z,49.88
2022-11-19T22:44:00.014Z,49.95
2022-11-19T22:46:28.911Z,50.09
2022-11-19T22:48:58.815Z,49.96
2022-11-19T22:51:27.366Z,50.15
2022-11-19T22:53:56.598Z,49.85
2022-11-19T22:56:27.876Z,50.17
2022-11-19T22:58:57.012Z,50.22
2022-11-19T23:01:27.194Z,49.97
2022-11-19T23:03:58.704Z,50.23
2022-11-19T23:06:27.471Z,50.04
2022-11-19T23:08:56.301Z,50.19
2022-11-19T23:11:39.241Z,50.00
2022-11-19T23:14:09.214Z,50.21
2022-11-19T23:16:38.676Z,50.38
2022-11-19T23:19:08.938Z,50.62
2022-11-19T23:21:38.316Z,50.06
2022-11-19T23:24:07.737Z,50.13
2022-11-19T23:26:36.191Z,50.45
2022-11-19T23:29:04.918Z,50.23
2022-11-19T23:31:36.371Z,50.20
2022-11-19T23:34:05.826Z,50.35
2022-11-19T23:36:37.203Z,50.07
2022-11-19T23:39:08.065Z,49.98
2022-11-19T23:41:37.108Z,50.15
2022-11-19T23:44:05.611Z,50.31
2022-11-19T23:46:36.154Z,50.09
2022-11-19T23:49:05.912Z,50.08
2022-11-19T23:51:37.486Z,50.10
2022-11-19T23:54:06.807Z,50.10
2022-11-19T23:56:36.796Z,50.07
2022-11-19T23:59:06.752Z,50.06
